WetterOnline ( https://www.wetteronline.de )

Wetter aktuell Am Großen Bruch

Aktuelles Wetter: Ummendorf (163m)

6-stündlich | Neueste Meldungen
Ortszeit Temperatur Wetter
Sa, 25.01. 7:00 -0.8° C bedeckt
Sa, 25.01. 1:00 -0.6° C bedeckt
Fr, 24.01. 19:00 -0.6° C bedeckt
Fr, 24.01. 13:00 -0.7° C bedeckt
Fr, 24.01. 7:00 -2.6° C wolkenlos
Fr, 24.01. 1:00 -1.3° C wolkenlos
Do, 23.01. 19:00 1.4° C wolkenlos
Do, 23.01. 13:00 4.6° C bedeckt
Ortszeit Temperatur Wetter
Sa, 25.01. 11:30 -0.0° C bedeckt
Sa, 25.01. 11:20 -0.0° C bedeckt
Sa, 25.01. 11:10 -0.1° C bedeckt
Sa, 25.01. 11:00 -0.3° C bedeckt
Sa, 25.01. 10:50 -0.3° C bedeckt
Sa, 25.01. 10:40 -0.3° C bedeckt
Sa, 25.01. 10:30 -0.4° C bedeckt
Sa, 25.01. 10:00 -0.5° C bedeckt
Ortszeit Relative Feuchte Sichtweite
Sa, 25.01. 7:00 96% 2.2 km
Sa, 25.01. 1:00 91% 5.0 km
Fr, 24.01. 19:00 91% 6 km
Fr, 24.01. 13:00 94% 4.2 km
Fr, 24.01. 7:00 96% 2.4 km
Fr, 24.01. 1:00 91% 11 km
Do, 23.01. 19:00 85% 24 km
Do, 23.01. 13:00 72% 45 km
Ortszeit Relative Feuchte Sichtweite
Sa, 25.01. 11:30 94% 5.0 km
Sa, 25.01. 11:20 94% -
Sa, 25.01. 11:10 94% -
Sa, 25.01. 11:00 96% 3.2 km
Sa, 25.01. 10:50 96% -
Sa, 25.01. 10:40 96% -
Sa, 25.01. 10:30 96% 2.2 km
Sa, 25.01. 10:00 96% 2.3 km
Ortszeit Niederschlagsmenge Niederschlagsart
Sa, 25.01. 7:00 0.0 l/m2 in 12 Std. -
Sa, 25.01. 1:00 0.0 l/m2 in 6 Std. -
Fr, 24.01. 19:00 0.0 l/m2 in 12 Std. -
Fr, 24.01. 13:00 0.0 l/m2 in 6 Std. -
Fr, 24.01. 7:00 0.0 l/m2 in 12 Std. -
Fr, 24.01. 1:00 0.0 l/m2 in 6 Std. -
Do, 23.01. 19:00 0.0 l/m2 in 12 Std. -
Do, 23.01. 13:00 0.0 l/m2 in 6 Std. -
Ortszeit Niederschlagsmenge Niederschlagsart
Sa, 25.01. 11:30 0.0 l/m2 in 1 Std. -
Sa, 25.01. 11:20 keine Meldung -
Sa, 25.01. 11:10 keine Meldung -
Sa, 25.01. 11:00 0.0 l/m2 in 1 Std. -
Sa, 25.01. 10:50 keine Meldung -
Sa, 25.01. 10:40 keine Meldung -
Sa, 25.01. 10:30 0.0 l/m2 in 1 Std. -
Sa, 25.01. 10:00 0.0 l/m2 in 1 Std. -
Ortszeit Stärke Spitze Richtung
km/h Bft. km/h Grad Sektor
Sa, 25.01. 7:00 17 3 20 240° SW
Sa, 25.01. 1:00 11 2 25 270° W
Fr, 24.01. 19:00 13 3 30 330° NW
Fr, 24.01. 13:00 18 3 29 290° W
Fr, 24.01. 7:00 7 2 14 250° W
Fr, 24.01. 1:00 4 1 7 240° SW
Do, 23.01. 19:00 4 1 14 60° NO
Do, 23.01. 13:00 6 1 15 230° SW
Ortszeit Stärke Spitze Richtung
km/h Bft. km/h Grad Sektor
Sa, 25.01. 11:30 18 3 25 230° SW
Sa, 25.01. 11:20 18 3 - 230° SW
Sa, 25.01. 11:10 18 3 - 240° SW
Sa, 25.01. 11:00 19 3 24 230° SW
Sa, 25.01. 10:50 19 3 - 230° SW
Sa, 25.01. 10:40 18 3 - 230° SW
Sa, 25.01. 10:30 18 3 25 230° SW
Sa, 25.01. 10:00 18 3 29 230° SW
Ortszeit Untergrenze Bedeckung Gattung
total tief tief mittel hoch
Sa, 25.01. 7:00 60 m 8/8 8/8 - - -
Sa, 25.01. 1:00 210 m 8/8 8/8 - - -
Fr, 24.01. 19:00 210 m 8/8 8/8 - - -
Fr, 24.01. 13:00 120 m 8/8 8/8 - - -
Fr, 24.01. 7:00 - 0/8 0/8 - - -
Fr, 24.01. 1:00 - 0/8 0/8 - - -
Do, 23.01. 19:00 - 0/8 0/8 - - -
Do, 23.01. 13:00 630 m 8/8 8/8 - - -
Ortszeit Bedeckungsgrad in Achtel und Wolkenuntergrenze
Sa, 25.01. 11:30 8(360m)
Sa, 25.01. 11:20 8(360m)
Sa, 25.01. 11:10 1(90m) 8(390m)
Sa, 25.01. 11:00 2(90m) 8(420m)
Sa, 25.01. 10:50 2(90m) 8(420m)
Sa, 25.01. 10:40 3(90m) 8(390m)
Sa, 25.01. 10:30 6(90m) 8(390m)
Sa, 25.01. 10:00 6(60m) 8(360m)
Ortszeit Luftdruck NN (hPa) Tendenz (hPa in 3 Std.)
Sa, 25.01. 7:00 1023 + 0,2
Sa, 25.01. 1:00 1023 - 0,5
Fr, 24.01. 19:00 1023 + 0,4
Fr, 24.01. 13:00 1024 + 0,3
Fr, 24.01. 7:00 1024 - 1,5
Fr, 24.01. 1:00 1027 - 1,9
Do, 23.01. 19:00 1030 - 1,4
Do, 23.01. 13:00 1033 - 1,6
Ortszeit Luftdruck NN (hPa) Tendenz (hPa in 3 Std.)
Sa, 25.01. 11:30 1024 + 0,8
Sa, 25.01. 11:20 1024 keine Meldung
Sa, 25.01. 11:10 1024 keine Meldung
Sa, 25.01. 11:00 1024 + 1,0
Sa, 25.01. 10:50 1024 keine Meldung
Sa, 25.01. 10:40 1024 keine Meldung
Sa, 25.01. 10:30 1024 + 1,0
Sa, 25.01. 10:00 1023 + 0,7
Ortszeit Schneehöhe (cm)
Sa, 25.01. 7:00 0
Sa, 25.01. 1:00 0
Fr, 24.01. 19:00 0
Fr, 24.01. 13:00 0
Fr, 24.01. 7:00 0
Fr, 24.01. 1:00 0
Do, 23.01. 19:00 0
Do, 23.01. 13:00 0
Ortszeit Schneehöhe (cm)
Sa, 25.01. 11:30 0
Sa, 25.01. 11:20 0
Sa, 25.01. 11:10 0
Sa, 25.01. 11:00 0
Sa, 25.01. 10:50 0
Sa, 25.01. 10:40 0
Sa, 25.01. 10:30 0
Sa, 25.01. 10:00 0
Link zu dieser Seite / Seite empfehlen

Das Wetter in ...